Time;durP1;ratioP1;P1;durP2;ratioP2;P2;SDS_P1;SDS_P2;PMS_P1;PMS_P2;Temp;Humidity;BMP_temperature;BMP_pressure;BME280_temperature;BME280_humidity;BME280_pressure;Samples;Min_cycle;Max_cycle;Signal;HPM_P1;HPM_P2
2023/10/25 00:00:17;;;;;;;4.57;2.25;;;16.40;91.80;;;;;;4954837;29;20031;-79
2023/10/25 00:02:43;;;;;;;4.03;2.22;;;16.40;91.70;;;;;;4954654;29;20039;-79
2023/10/25 00:05:09;;;;;;;3.92;2.10;;;16.40;91.70;;;;;;4955575;29;20398;-79
2023/10/25 00:07:34;;;;;;;5.63;2.20;;;16.40;91.70;;;;;;4954554;29;20082;-79
2023/10/25 00:10:03;;;;;;;4.45;2.13;;;16.40;91.70;;;;;;4957941;28;20026;-79
2023/10/25 00:12:28;;;;;;;4.50;2.30;;;16.40;91.70;;;;;;4973606;28;20515;-80
2023/10/25 00:14:54;;;;;;;5.47;2.45;;;16.40;91.80;;;;;;4973708;28;20113;-79
2023/10/25 00:17:20;;;;;;;4.78;2.10;;;16.40;91.80;;;;;;4957685;28;20094;-78
2023/10/25 00:19:45;;;;;;;4.80;2.35;;;16.30;91.80;;;;;;4974984;28;20026;-79
2023/10/25 00:22:11;;;;;;;4.82;2.35;;;16.30;91.80;;;;;;4973688;28;20485;-79
2023/10/25 00:24:37;;;;;;;4.72;2.28;;;16.30;91.80;;;;;;4973363;28;20026;-78
2023/10/25 00:27:03;;;;;;;5.40;2.40;;;16.30;91.80;;;;;;4974855;28;20536;-79
2023/10/25 00:29:28;;;;;;;4.47;2.17;;;16.30;91.90;;;;;;4974865;28;20100;-79
2023/10/25 00:31:54;;;;;;;4.03;2.40;;;16.30;91.90;;;;;;4973195;28;20448;-79
2023/10/25 00:34:19;;;;;;;4.22;2.17;;;16.30;91.90;;;;;;4973547;28;20019;-79
2023/10/25 00:36:45;;;;;;;3.72;2.10;;;16.30;91.90;;;;;;4973138;28;20023;-79
2023/10/25 00:39:10;;;;;;;4.32;2.50;;;16.30;91.90;;;;;;4973419;28;20386;-79
2023/10/25 00:41:36;;;;;;;5.28;2.45;;;16.30;91.90;;;;;;4956834;28;20023;-79
2023/10/25 00:44:01;;;;;;;4.80;2.45;;;16.30;91.90;;;;;;4956953;28;20126;-79
2023/10/25 00:46:29;;;;;;;3.80;1.98;;;16.30;91.90;;;;;;4956968;28;20030;-80
2023/10/25 00:48:57;;;;;;;4.03;2.10;;;16.30;91.90;;;;;;4973111;28;20057;-79
2023/10/25 00:51:23;;;;;;;4.30;2.40;;;16.20;91.90;;;;;;4973254;28;20073;-79
2023/10/25 00:53:54;;;;;;;4.50;2.40;;;16.30;91.90;;;;;;4957024;28;20023;-79
2023/10/25 00:56:22;;;;;;;3.72;2.10;;;16.20;92.20;;;;;;4974099;28;20501;-79
2023/10/25 00:58:50;;;;;;;4.70;2.40;;;16.30;92.00;;;;;;4974351;28;20484;-78
2023/10/25 01:01:17;;;;;;;2.72;1.85;;;16.30;91.90;;;;;;4972981;28;20023;-79
2023/10/25 01:03:43;;;;;;;3.20;1.80;;;16.30;91.90;;;;;;4973114;28;20510;-79
2023/10/25 01:06:09;;;;;;;3.80;1.95;;;16.30;91.90;;;;;;4974417;28;20026;-79
2023/10/25 01:08:35;;;;;;;4.65;2.40;;;16.30;91.80;;;;;;4974371;28;20031;-79
2023/10/25 01:11:01;;;;;;;3.88;2.17;;;16.40;91.80;;;;;;4956665;28;20026;-79
2023/10/25 01:13:27;;;;;;;4.65;2.47;;;16.30;91.70;;;;;;4972651;28;20031;-79
2023/10/25 01:15:52;;;;;;;4.15;2.08;;;16.40;91.70;;;;;;4972428;28;20031;-80
2023/10/25 01:18:18;;;;;;;4.53;2.22;;;16.30;91.70;;;;;;4972743;28;20121;-79
2023/10/25 01:20:44;;;;;;;3.90;2.20;;;16.30;91.70;;;;;;4956747;28;20023;-81
2023/10/25 01:23:10;;;;;;;5.25;2.00;;;16.30;91.70;;;;;;4972803;28;20030;-79
2023/10/25 01:25:37;;;;;;;4.65;2.30;;;16.30;91.70;;;;;;4973877;28;20027;-78
2023/10/25 01:28:04;;;;;;;4.43;2.40;;;16.30;91.70;;;;;;4972437;28;20027;-79
2023/10/25 01:30:29;;;;;;;3.67;2.15;;;16.30;91.80;;;;;;4972665;28;20552;-80
2023/10/25 01:32:55;;;;;;;4.03;1.90;;;16.30;91.80;;;;;;4973468;28;20030;-79
2023/10/25 01:35:21;;;;;;;4.30;2.17;;;16.30;91.80;;;;;;4956645;28;20023;-79
2023/10/25 01:37:47;;;;;;;3.88;1.98;;;16.30;91.80;;;;;;4972457;28;20027;-79
2023/10/25 01:40:12;;;;;;;3.55;2.10;;;16.20;91.80;;;;;;4956744;28;20022;-79
2023/10/25 01:42:38;;;;;;;4.68;2.22;;;16.20;91.80;;;;;;4973947;28;20030;-79
2023/10/25 01:45:04;;;;;;;4.65;2.08;;;16.20;91.80;;;;;;4972594;28;20035;-79
2023/10/25 01:47:29;;;;;;;4.18;2.10;;;16.20;91.80;;;;;;4956265;28;20576;-79
2023/10/25 01:49:55;;;;;;;3.83;2.00;;;16.20;91.80;;;;;;4972687;28;20170;-79
2023/10/25 01:52:21;;;;;;;4.22;2.13;;;16.20;91.90;;;;;;4972619;28;20493;-80
2023/10/25 01:54:50;;;;;;;4.72;2.25;;;16.20;91.90;;;;;;4975732;28;20397;-79
2023/10/25 01:57:16;;;;;;;5.32;2.10;;;16.20;91.80;;;;;;4959964;28;20034;-79
2023/10/25 01:59:41;;;;;;;3.83;2.25;;;16.20;91.90;;;;;;4976152;28;20500;-79
2023/10/25 02:02:07;;;;;;;4.45;2.10;;;16.20;91.90;;;;;;4977438;28;20033;-79
2023/10/25 02:04:33;;;;;;;5.57;2.22;;;16.20;91.90;;;;;;4976119;28;20047;-79
2023/10/25 02:06:58;;;;;;;3.53;2.10;;;16.20;91.90;;;;;;4975949;28;20085;-79
2023/10/25 02:09:24;;;;;;;3.65;1.90;;;16.20;91.90;;;;;;4960159;28;20027;-79
2023/10/25 02:11:49;;;;;;;4.03;2.03;;;16.20;91.90;;;;;;4960059;28;20571;-79
2023/10/25 02:14:15;;;;;;;3.17;1.75;;;16.20;91.80;;;;;;4960053;28;20497;-79
2023/10/25 02:16:41;;;;;;;3.63;1.88;;;16.30;91.80;;;;;;4975716;28;20109;-79
2023/10/25 02:19:07;;;;;;;3.92;1.75;;;16.20;91.90;;;;;;4971386;28;20047;-78
2023/10/25 02:21:35;;;;;;;5.07;2.25;;;16.30;91.70;;;;;;4956429;29;20035;-79
2023/10/25 02:24:02;;;;;;;2.97;1.80;;;16.30;91.60;;;;;;4975374;28;20033;-78
2023/10/25 02:26:27;;;;;;;3.88;1.73;;;16.30;91.60;;;;;;4995088;28;20510;-79
2023/10/25 02:28:53;;;;;;;3.80;1.98;;;16.30;91.60;;;;;;4996482;28;20109;-80
2023/10/25 02:31:18;;;;;;;4.97;2.15;;;16.30;91.60;;;;;;4995193;28;20121;-79
2023/10/25 02:33:44;;;;;;;4.53;2.25;;;16.30;91.60;;;;;;4995257;28;20038;-79
2023/10/25 02:36:09;;;;;;;4.15;2.20;;;16.20;91.60;;;;;;4978510;28;20014;-79
2023/10/25 02:38:35;;;;;;;4.15;2.05;;;16.20;91.60;;;;;;4996410;28;20038;-79
2023/10/25 02:41:00;;;;;;;3.60;1.95;;;16.20;91.60;;;;;;4995096;28;20033;-79
2023/10/25 02:43:26;;;;;;;3.28;1.88;;;16.20;91.70;;;;;;4995159;28;20492;-79
2023/10/25 02:45:52;;;;;;;3.65;1.98;;;16.20;91.70;;;;;;4994794;28;20022;-77
2023/10/25 02:48:18;;;;;;;3.10;2.00;;;16.20;91.70;;;;;;4995070;28;20095;-79
2023/10/25 02:50:44;;;;;;;4.47;2.08;;;16.20;91.70;;;;;;4995041;28;20042;-79
2023/10/25 02:53:09;;;;;;;3.38;1.77;;;16.20;91.80;;;;;;4994801;28;20443;-79
2023/10/25 02:55:35;;;;;;;3.28;1.90;;;16.20;91.80;;;;;;4978511;28;20035;-80
2023/10/25 02:58:01;;;;;;;3.70;1.75;;;16.20;91.80;;;;;;4995874;28;20101;-80
2023/10/25 03:00:27;;;;;;;3.13;1.70;;;16.20;91.80;;;;;;4994560;28;20018;-79
2023/10/25 03:02:53;;;;;;;3.58;1.95;;;16.20;91.80;;;;;;4995878;28;20102;-79
2023/10/25 03:05:18;;;;;;;3.38;1.70;;;16.10;91.80;;;;;;4977766;28;20022;-79
2023/10/25 03:07:44;;;;;;;3.90;1.80;;;16.10;91.80;;;;;;4978221;28;20041;-79
2023/10/25 03:10:09;;;;;;;3.22;2.05;;;16.10;91.80;;;;;;4995857;28;20464;-80
2023/10/25 03:12:35;;;;;;;4.05;1.85;;;16.10;91.80;;;;;;4978225;28;20100;-79
2023/10/25 03:15:00;;;;;;;3.38;1.80;;;16.10;91.80;;;;;;4994347;28;20022;-79
2023/10/25 03:17:29;;;;;;;3.45;1.73;;;16.10;91.80;;;;;;4994115;28;20027;-79
2023/10/25 03:19:55;;;;;;;3.08;1.55;;;16.10;91.80;;;;;;4995596;28;20417;-79
2023/10/25 03:22:20;;;;;;;3.10;1.80;;;16.20;91.80;;;;;;4994160;28;20107;-79
2023/10/25 03:24:46;;;;;;;2.75;1.80;;;16.20;91.80;;;;;;4975649;28;20045;-80
2023/10/25 03:27:12;;;;;;;2.92;1.65;;;16.20;91.80;;;;;;4967790;28;20086;-78
2023/10/25 03:29:37;;;;;;;4.13;1.88;;;16.20;91.70;;;;;;4957925;28;20460;-79
2023/10/25 03:32:03;;;;;;;3.65;1.80;;;16.20;91.60;;;;;;4956998;28;20126;-79
2023/10/25 03:34:29;;;;;;;3.25;1.52;;;16.20;91.60;;;;;;4973618;28;20058;-79
2023/10/25 03:36:55;;;;;;;3.85;1.58;;;16.20;91.60;;;;;;4956896;28;20066;-78
2023/10/25 03:39:21;;;;;;;3.90;1.73;;;16.20;91.60;;;;;;4957287;28;20041;-80
2023/10/25 03:41:46;;;;;;;3.30;1.70;;;16.20;91.60;;;;;;4944768;29;20687;-80
2023/10/25 03:44:13;;;;;;;3.08;1.70;;;16.20;91.60;;;;;;4937155;29;20478;-79
2023/10/25 03:46:38;;;;;;;2.92;1.50;;;16.20;91.60;;;;;;4953682;29;20082;-79
2023/10/25 03:49:05;;;;;;;4.60;1.75;;;16.20;91.60;;;;;;4954299;29;20039;-78
2023/10/25 03:51:31;;;;;;;3.10;1.80;;;16.10;91.60;;;;;;4953046;29;20027;-79
2023/10/25 03:53:57;;;;;;;3.28;1.70;;;16.20;91.70;;;;;;4955454;29;20055;-79
2023/10/25 03:56:22;;;;;;;2.75;1.70;;;16.10;91.70;;;;;;4953607;29;20493;-79
2023/10/25 03:58:48;;;;;;;2.40;1.50;;;16.10;91.70;;;;;;4952945;29;20516;-79
2023/10/25 04:01:14;;;;;;;3.20;1.60;;;16.10;91.70;;;;;;4954658;29;20066;-79
2023/10/25 04:03:39;;;;;;;3.92;1.75;;;16.10;91.70;;;;;;4954103;28;20035;-78
2023/10/25 04:06:07;;;;;;;3.65;1.85;;;16.10;91.70;;;;;;4956941;28;20049;-80
2023/10/25 04:08:33;;;;;;;2.63;1.67;;;16.10;91.70;;;;;;4938685;29;20030;-79
2023/10/25 04:10:59;;;;;;;3.60;1.80;;;16.10;91.70;;;;;;4955247;29;20035;-78
2023/10/25 04:13:25;;;;;;;3.90;1.77;;;16.10;91.70;;;;;;4953116;28;20035;-82
2023/10/25 04:18:22;;;;;;;3.05;1.65;;;16.10;91.70;;;;;;4968723;28;20051;-80
2023/10/25 04:20:47;;;;;;;2.95;1.63;;;16.20;91.80;;;;;;4952317;28;20026;-78
2023/10/25 04:23:13;;;;;;;2.70;1.63;;;16.10;91.70;;;;;;4978475;28;20026;-79
2023/10/25 04:25:38;;;;;;;2.90;1.80;;;16.10;91.70;;;;;;4969777;28;20445;-80
2023/10/25 04:28:04;;;;;;;2.22;1.30;;;16.10;91.70;;;;;;4953038;28;20034;-79
2023/10/25 04:30:31;;;;;;;2.97;1.42;;;16.10;91.70;;;;;;4952957;28;20037;-78
2023/10/25 04:32:57;;;;;;;4.90;1.85;;;16.10;91.80;;;;;;4970146;28;20034;-80
2023/10/25 04:35:22;;;;;;;3.00;1.50;;;16.10;91.70;;;;;;4952518;28;20039;-80
2023/10/25 04:37:48;;;;;;;3.55;1.80;;;16.10;91.70;;;;;;4969445;28;20105;-80
2023/10/25 04:40:13;;;;;;;2.67;1.60;;;16.10;91.60;;;;;;4985678;28;20475;-78
2023/10/25 04:42:39;;;;;;;2.25;1.40;;;16.20;91.50;;;;;;4971754;28;20076;-79
2023/10/25 04:45:05;;;;;;;3.13;1.70;;;16.20;91.50;;;;;;4972217;28;20038;-78
2023/10/25 04:47:30;;;;;;;3.20;1.60;;;16.20;91.50;;;;;;4971823;28;20026;-80
2023/10/25 04:49:57;;;;;;;3.05;1.63;;;16.20;91.40;;;;;;4989148;28;20041;-78
2023/10/25 04:52:23;;;;;;;2.40;1.45;;;16.20;91.40;;;;;;4972015;28;20115;-79
2023/10/25 04:54:49;;;;;;;3.55;1.58;;;16.10;91.40;;;;;;4968582;28;20417;-79
2023/10/25 04:57:14;;;;;;;3.58;1.75;;;16.10;91.40;;;;;;4971655;28;20057;-79
2023/10/25 04:59:40;;;;;;;3.13;1.73;;;16.10;91.40;;;;;;4971989;28;20841;-79
2023/10/25 05:02:05;;;;;;;2.63;1.50;;;16.10;91.50;;;;;;4964480;28;20113;-79
2023/10/25 05:04:31;;;;;;;3.63;1.60;;;16.10;91.50;;;;;;4951199;28;20039;-79
2023/10/25 05:06:57;;;;;;;3.38;1.60;;;16.10;91.50;;;;;;4952389;28;20036;-79
2023/10/25 05:09:22;;;;;;;2.53;1.40;;;16.10;91.50;;;;;;4979134;28;20041;-80
2023/10/25 05:11:58;;;;;;;3.20;1.67;;;16.10;91.50;;;;;;4971858;28;20033;-81
2023/10/25 05:14:24;;;;;;;2.80;1.60;;;16.10;91.60;;;;;;4988040;28;20033;-79
2023/10/25 05:16:49;;;;;;;2.75;1.60;;;16.10;91.60;;;;;;4988641;28;20034;-80
2023/10/25 05:19:15;;;;;;;2.95;1.67;;;16.00;91.60;;;;;;4988995;28;20027;-80
2023/10/25 05:21:43;;;;;;;2.70;1.60;;;16.10;91.60;;;;;;4989097;28;20110;-79
2023/10/25 05:24:09;;;;;;;3.20;1.55;;;16.10;91.60;;;;;;4989099;28;20022;-80
2023/10/25 05:26:35;;;;;;;2.67;1.40;;;16.00;91.60;;;;;;4969294;28;20421;-80
2023/10/25 05:29:01;;;;;;;3.10;1.58;;;16.10;91.60;;;;;;4954330;28;20082;-81
2023/10/25 05:31:27;;;;;;;3.00;1.73;;;16.10;91.60;;;;;;4956198;28;20046;-79
2023/10/25 05:33:53;;;;;;;4.40;1.70;;;16.10;91.60;;;;;;4966971;28;20042;-80
2023/10/25 05:36:19;;;;;;;3.35;1.80;;;16.10;91.60;;;;;;4990255;28;20054;-80
2023/10/25 05:38:45;;;;;;;3.58;1.63;;;16.10;91.40;;;;;;4975494;28;20100;-80
2023/10/25 05:41:20;;;;;;;4.03;1.50;;;16.00;91.40;;;;;;4977909;28;20157;-80
2023/10/25 05:44:05;;;;;;;4.38;1.73;;;16.10;91.30;;;;;;4979683;28;20026;-80
2023/10/25 05:46:31;;;;;;;4.07;1.65;;;16.00;91.30;;;;;;4979401;28;20052;-80
2023/10/25 05:48:56;;;;;;;6.47;1.90;;;16.10;91.30;;;;;;4979525;28;20500;-80
2023/10/25 05:51:22;;;;;;;2.40;1.40;;;16.10;91.20;;;;;;4979266;28;20040;-80
2023/10/25 05:53:49;;;;;;;5.35;1.80;;;16.10;91.10;;;;;;4979506;28;20022;-80
2023/10/25 05:56:16;;;;;;;3.65;1.60;;;16.10;91.10;;;;;;4979064;28;20030;-80
2023/10/25 05:58:42;;;;;;;4.07;1.50;;;16.10;91.00;;;;;;4979366;28;20029;-80
2023/10/25 06:01:09;;;;;;;3.72;1.67;;;16.20;91.00;;;;;;4979316;28;20113;-80
2023/10/25 06:03:35;;;;;;;3.08;1.77;;;16.10;91.00;;;;;;4946708;28;20448;-80
2023/10/25 06:06:02;;;;;;;4.57;1.70;;;16.10;91.00;;;;;;4940533;29;20062;-79
2023/10/25 06:08:28;;;;;;;4.05;1.75;;;16.10;91.10;;;;;;4940518;29;20540;-80
2023/10/25 06:10:54;;;;;;;3.05;1.52;;;16.10;91.10;;;;;;4940526;29;20061;-80
2023/10/25 06:13:20;;;;;;;3.80;1.50;;;16.00;91.10;;;;;;4957431;29;20038;-80
2023/10/25 06:15:46;;;;;;;3.70;1.60;;;16.10;91.20;;;;;;4940339;29;20019;-80
2023/10/25 06:18:12;;;;;;;4.28;1.63;;;16.10;91.20;;;;;;4940095;29;20047;-80
2023/10/25 06:20:37;;;;;;;5.03;1.65;;;16.00;91.20;;;;;;4957683;29;20030;-80
2023/10/25 06:23:03;;;;;;;5.47;1.70;;;16.10;91.20;;;;;;4940279;29;20130;-81
2023/10/25 06:25:32;;;;;;;3.47;1.60;;;16.00;91.20;;;;;;4957380;29;20431;-80
2023/10/25 06:27:59;;;;;;;4.07;1.30;;;16.00;91.20;;;;;;4957237;29;20449;-80
2023/10/25 06:30:26;;;;;;;3.63;1.60;;;16.00;91.20;;;;;;4940480;29;20090;-80
2023/10/25 06:32:52;;;;;;;4.07;1.70;;;16.10;91.30;;;;;;4940453;29;20050;-80
2023/10/25 06:35:17;;;;;;;3.95;1.50;;;16.10;91.30;;;;;;4940147;29;20509;-80
2023/10/25 06:37:43;;;;;;;3.95;1.83;;;16.10;91.30;;;;;;4957051;29;20379;-80
2023/10/25 06:40:09;;;;;;;3.20;1.30;;;16.10;91.30;;;;;;4956142;28;20027;-80
2023/10/25 06:42:35;;;;;;;3.22;1.30;;;16.00;91.20;;;;;;4939980;29;20027;-80
2023/10/25 06:45:02;;;;;;;2.40;1.20;;;16.00;91.20;;;;;;4939763;29;20094;-80
2023/10/25 06:47:28;;;;;;;4.35;1.40;;;16.00;91.20;;;;;;4939781;29;20406;-80
2023/10/25 06:49:54;;;;;;;3.35;1.60;;;16.10;91.20;;;;;;4939897;29;20051;-80
2023/10/25 06:52:20;;;;;;;2.58;1.27;;;16.10;91.10;;;;;;4939835;29;20034;-80
2023/10/25 06:54:46;;;;;;;3.08;1.60;;;16.10;91.20;;;;;;4956218;28;20023;-80
2023/10/25 06:57:13;;;;;;;2.28;1.40;;;16.20;91.20;;;;;;4958807;28;20027;-80
2023/10/25 06:59:39;;;;;;;3.83;1.45;;;16.20;91.10;;;;;;4958822;28;20023;-80
2023/10/25 07:02:38;;;;;;;3.63;1.42;;;16.20;91.10;;;;;;4958833;28;20583;-80
2023/10/25 07:05:12;;;;;;;3.05;1.50;;;16.30;91.00;;;;;;4951732;28;20497;-80
2023/10/25 07:07:39;;;;;;;2.28;1.30;;;16.30;90.90;;;;;;4958517;28;20114;-80
2023/10/25 07:10:08;;;;;;;3.47;1.23;;;16.30;90.80;;;;;;4958670;28;20125;-80
2023/10/25 07:12:34;;;;;;;3.55;1.33;;;16.40;90.80;;;;;;4958715;28;20031;-80
2023/10/25 07:15:00;;;;;;;3.33;1.63;;;16.40;90.70;;;;;;4958613;28;20027;-80
2023/10/25 07:17:30;;;;;;;2.60;1.30;;;16.40;90.70;;;;;;4958293;28;20042;-80
2023/10/25 07:19:55;;;;;;;1.80;1.10;;;16.40;90.70;;;;;;4958486;28;20023;-80
2023/10/25 07:22:21;;;;;;;2.58;1.27;;;16.40;90.60;;;;;;4958424;28;20061;-80
2023/10/25 07:24:46;;;;;;;2.25;1.30;;;16.40;90.60;;;;;;4958273;28;20398;-80
2023/10/25 07:27:12;;;;;;;2.30;1.00;;;16.40;90.60;;;;;;4958123;28;20031;-80
2023/10/25 07:29:38;;;;;;;3.15;1.30;;;16.40;90.60;;;;;;4958368;28;20022;-80
2023/10/25 07:32:04;;;;;;;2.55;1.30;;;16.40;90.60;;;;;;4976606;28;20031;-80
2023/10/25 07:34:30;;;;;;;2.28;1.20;;;16.40;90.50;;;;;;4958195;28;20036;-80
2023/10/25 07:36:55;;;;;;;2.20;1.30;;;16.50;90.60;;;;;;4958091;28;20101;-80
2023/10/25 07:39:21;;;;;;;3.08;1.38;;;16.50;90.60;;;;;;4975488;28;20077;-80
2023/10/25 07:41:47;;;;;;;2.58;1.38;;;16.50;90.50;;;;;;4958206;28;20027;-80
2023/10/25 07:44:12;;;;;;;2.08;1.17;;;16.60;90.50;;;;;;4957997;28;20097;-80
2023/10/25 07:46:38;;;;;;;2.72;1.20;;;16.60;90.70;;;;;;4958082;28;20119;-80
2023/10/25 07:49:04;;;;;;;2.83;1.48;;;16.60;90.40;;;;;;4957918;28;20695;-80
2023/10/25 07:51:29;;;;;;;2.88;1.35;;;16.60;90.40;;;;;;4957660;28;20026;-80
2023/10/25 07:53:55;;;;;;;1.40;1.08;;;16.60;90.40;;;;;;4957700;28;20023;-81
2023/10/25 07:56:20;;;;;;;2.10;1.20;;;16.60;90.40;;;;;;4957536;28;20033;-80
2023/10/25 07:58:46;;;;;;;2.28;1.20;;;16.60;90.30;;;;;;4957742;28;20503;-80
2023/10/25 08:01:14;;;;;;;2.08;1.08;;;16.60;90.30;;;;;;4957733;28;20034;-80
2023/10/25 08:03:40;;;;;;;2.72;1.15;;;16.60;90.30;;;;;;4957743;28;20037;-80
2023/10/25 08:06:05;;;;;;;1.83;1.02;;;16.60;90.40;;;;;;4974685;28;20031;-80
2023/10/25 08:08:32;;;;;;;2.08;1.15;;;16.60;90.40;;;;;;4957700;28;20026;-80
2023/10/25 08:11:04;;;;;;;2.08;1.10;;;16.60;90.50;;;;;;4974714;28;20061;-80
2023/10/25 08:13:32;;;;;;;1.95;1.20;;;16.60;90.40;;;;;;4957373;28;20023;-80
2023/10/25 08:16:02;;;;;;;2.03;1.10;;;16.60;90.40;;;;;;4957252;28;20564;-80
2023/10/25 08:18:29;;;;;;;2.08;1.20;;;16.70;90.40;;;;;;4974629;28;20023;-80
2023/10/25 08:20:56;;;;;;;2.20;1.20;;;16.70;90.30;;;;;;4957474;28;20037;-80
2023/10/25 08:23:21;;;;;;;2.47;1.17;;;16.70;90.30;;;;;;4957278;28;20077;-80
2023/10/25 08:25:47;;;;;;;2.15;1.20;;;16.70;90.30;;;;;;4957318;28;20026;-80
2023/10/25 08:28:13;;;;;;;2.22;1.20;;;16.70;90.20;;;;;;4957078;28;20169;-80
2023/10/25 08:30:38;;;;;;;1.70;1.08;;;16.70;90.30;;;;;;4957141;28;20037;-80
2023/10/25 08:33:04;;;;;;;2.03;1.10;;;16.70;90.30;;;;;;4957076;28;20031;-80
2023/10/25 08:35:29;;;;;;;1.92;1.20;;;16.70;90.20;;;;;;4957031;28;20019;-80
2023/10/25 08:37:55;;;;;;;2.35;1.30;;;16.70;90.20;;;;;;4956906;28;20026;-79
2023/10/25 08:40:20;;;;;;;3.13;1.30;;;16.70;90.10;;;;;;4957005;28;20069;-80
2023/10/25 08:42:46;;;;;;;3.50;1.40;;;16.80;90.10;;;;;;4957102;28;20029;-80
2023/10/25 08:45:14;;;;;;;2.33;1.30;;;16.80;90.10;;;;;;4956847;28;20031;-81
2023/10/25 08:47:40;;;;;;;2.17;0.82;;;16.90;90.10;;;;;;4956807;28;20181;-80
2023/10/25 08:50:06;;;;;;;2.67;1.30;;;16.90;90.00;;;;;;4956973;28;20114;-80
2023/10/25 08:52:35;;;;;;;2.25;1.10;;;16.90;90.00;;;;;;4956789;28;20031;-80
2023/10/25 08:55:01;;;;;;;2.58;1.35;;;16.90;90.00;;;;;;4956794;28;20027;-80
2023/10/25 08:57:27;;;;;;;3.13;1.35;;;17.00;90.00;;;;;;4956859;28;20093;-80
2023/10/25 08:59:53;;;;;;;1.45;1.00;;;17.00;90.00;;;;;;4956804;28;20023;-80
2023/10/25 09:02:18;;;;;;;2.72;1.30;;;17.00;89.90;;;;;;4956797;28;20073;-80
2023/10/25 09:04:57;;;;;;;1.98;1.10;;;17.00;90.00;;;;;;4956096;28;20031;-80
2023/10/25 09:07:28;;;;;;;2.83;1.20;;;17.00;90.00;;;;;;4956426;28;20023;-80
2023/10/25 09:09:54;;;;;;;1.80;1.10;;;17.00;90.00;;;;;;4956613;28;20043;-80
2023/10/25 09:12:20;;;;;;;1.73;1.10;;;16.90;90.00;;;;;;4973866;28;20038;-80
2023/10/25 09:14:47;;;;;;;2.13;1.00;;;16.90;90.00;;;;;;4956454;28;20027;-80
2023/10/25 09:17:12;;;;;;;2.38;1.20;;;16.90;90.20;;;;;;4956218;28;20030;-80
2023/10/25 09:19:43;;;;;;;2.78;1.27;;;16.90;90.20;;;;;;4956428;28;20034;-80
2023/10/25 09:22:25;;;;;;;1.60;1.10;;;16.90;90.30;;;;;;4973768;28;20069;-80
2023/10/25 09:24:52;;;;;;;2.05;1.20;;;16.90;90.20;;;;;;4973734;28;20046;-80
2023/10/25 09:27:18;;;;;;;1.88;1.05;;;16.80;90.20;;;;;;4956283;28;20038;-80
2023/10/25 09:29:44;;;;;;;2.50;1.25;;;16.90;90.20;;;;;;4973721;28;20508;-80
2023/10/25 09:32:10;;;;;;;2.00;1.20;;;16.80;90.20;;;;;;4956120;28;20026;-80
2023/10/25 09:34:36;;;;;;;2.50;1.13;;;16.90;90.10;;;;;;4956259;28;20073;-80
2023/10/25 09:37:04;;;;;;;2.53;1.20;;;16.90;90.20;;;;;;4955947;28;20030;-80
2023/10/25 09:39:35;;;;;;;2.33;1.17;;;16.80;90.20;;;;;;4973329;28;20477;-81
2023/10/25 09:42:05;;;;;;;2.20;1.25;;;16.80;90.20;;;;;;4956384;28;20038;-80
2023/10/25 09:44:51;;;;;;;1.65;1.10;;;16.80;90.20;;;;;;4956381;28;20033;-80
2023/10/25 09:47:18;;;;;;;3.00;1.10;;;16.70;90.30;;;;;;4956150;28;20038;-80
2023/10/25 09:49:46;;;;;;;3.33;1.20;;;16.70;90.30;;;;;;4973620;28;20085;-80
2023/10/25 09:52:26;;;;;;;1.65;1.08;;;16.70;90.30;;;;;;4956085;28;20030;-80
2023/10/25 09:55:01;;;;;;;1.98;1.23;;;16.70;90.40;;;;;;4956101;28;20023;-80
2023/10/25 09:57:29;;;;;;;1.88;1.10;;;16.70;90.40;;;;;;4973318;28;20023;-80
2023/10/25 09:59:56;;;;;;;2.15;1.25;;;16.60;90.40;;;;;;4956268;28;20404;-80
2023/10/25 10:02:30;;;;;;;2.22;1.10;;;16.60;90.40;;;;;;4956152;28;20121;-80
2023/10/25 10:05:03;;;;;;;1.92;1.23;;;16.60;90.50;;;;;;4956098;28;20070;-80
2023/10/25 10:07:37;;;;;;;2.55;1.17;;;16.60;90.50;;;;;;4955959;28;20069;-80
2023/10/25 10:10:22;;;;;;;2.63;1.13;;;16.60;90.50;;;;;;4973408;28;20493;-80
2023/10/25 10:12:48;;;;;;;2.10;1.13;;;16.60;90.50;;;;;;4955938;28;20034;-81
2023/10/25 10:15:14;;;;;;;2.80;1.27;;;16.60;90.50;;;;;;4957912;28;20035;-81
2023/10/25 10:17:43;;;;;;;2.67;1.27;;;16.50;90.50;;;;;;4976629;28;20041;-80
2023/10/25 10:20:23;;;;;;;3.92;1.42;;;16.50;90.60;;;;;;4959680;28;20023;-80
2023/10/25 10:23:01;;;;;;;2.28;1.10;;;16.50;90.60;;;;;;4959541;28;20031;-81
2023/10/25 10:25:45;;;;;;;2.97;1.20;;;16.50;90.60;;;;;;4976665;28;20440;-80
2023/10/25 10:28:10;;;;;;;2.63;1.42;;;16.50;90.60;;;;;;4959440;28;20030;-80
2023/10/25 10:30:40;;;;;;;0.80;0.80;;;16.50;90.60;;;;;;4959345;28;20023;-80
2023/10/25 10:33:11;;;;;;;1.83;1.10;;;16.50;90.60;;;;;;4976557;28;20485;-80
2023/10/25 10:35:47;;;;;;;1.88;1.15;;;16.50;90.50;;;;;;4959372;28;20481;-80
2023/10/25 10:38:13;;;;;;;1.65;1.00;;;16.50;90.50;;;;;;4959133;28;20405;-80
2023/10/25 10:40:38;;;;;;;1.88;1.02;;;16.50;90.40;;;;;;4959206;28;20023;-80
2023/10/25 10:43:06;;;;;;;2.60;1.10;;;16.60;90.40;;;;;;4959098;28;20050;-80
2023/10/25 10:45:32;;;;;;;1.75;1.10;;;16.60;90.40;;;;;;4959358;28;20038;-80
2023/10/25 10:48:22;;;;;;;2.33;1.00;;;16.60;90.40;;;;;;4976257;28;20035;-80
2023/10/25 10:50:49;;;;;;;1.37;0.97;;;16.60;90.40;;;;;;4976311;28;20507;-80
2023/10/25 10:53:14;;;;;;;2.20;1.30;;;16.50;90.40;;;;;;4958888;28;20863;-80
2023/10/25 10:55:40;;;;;;;1.35;0.90;;;16.50;90.40;;;;;;4958846;28;20027;-80
2023/10/25 10:58:07;;;;;;;1.73;1.02;;;16.50;90.50;;;;;;4975957;28;20382;-80
2023/10/25 11:00:33;;;;;;;2.28;1.30;;;16.50;90.50;;;;;;4958785;28;20026;-80
2023/10/25 11:03:02;;;;;;;3.38;1.40;;;16.50;90.50;;;;;;4958933;28;20429;-80
2023/10/25 11:05:27;;;;;;;1.50;1.00;;;16.50;90.60;;;;;;4958675;28;20412;-80
2023/10/25 11:07:56;;;;;;;2.47;1.20;;;16.40;90.60;;;;;;4958454;28;20121;-80
2023/10/25 11:10:22;;;;;;;3.00;1.30;;;16.40;90.60;;;;;;4958713;28;20031;-80
2023/10/25 11:12:47;;;;;;;1.50;1.20;;;16.30;90.70;;;;;;4958500;28;20027;-80
2023/10/25 11:15:13;;;;;;;2.38;1.33;;;16.40;90.70;;;;;;4958611;28;20023;-80
2023/10/25 11:17:39;;;;;;;4.88;1.10;;;16.40;90.70;;;;;;4975447;28;20036;-80
2023/10/25 11:20:06;;;;;;;1.73;1.10;;;16.40;90.70;;;;;;4958512;28;20050;-80
2023/10/25 11:22:32;;;;;;;2.25;1.20;;;16.40;90.70;;;;;;4975787;28;20026;-80
2023/10/25 11:24:58;;;;;;;2.45;1.30;;;16.40;90.70;;;;;;4958664;28;20073;-80
2023/10/25 11:27:34;;;;;;;1.67;1.10;;;16.40;90.70;;;;;;4957591;28;20053;-80
2023/10/25 11:30:00;;;;;;;1.67;1.02;;;16.40;90.70;;;;;;4958311;28;20034;-80
2023/10/25 11:32:29;;;;;;;2.38;1.20;;;16.40;90.70;;;;;;4958357;28;20052;-80
2023/10/25 11:34:56;;;;;;;2.25;1.25;;;16.40;90.70;;;;;;4975475;28;20031;-80
2023/10/25 11:37:26;;;;;;;2.60;1.13;;;16.30;90.70;;;;;;4958010;28;20408;-80
2023/10/25 11:40:02;;;;;;;2.38;1.20;;;16.40;90.80;;;;;;4958100;28;20114;-79
2023/10/25 11:42:31;;;;;;;2.35;1.23;;;16.40;90.70;;;;;;4958313;28;20022;-80
2023/10/25 11:44:59;;;;;;;1.90;1.20;;;16.40;90.60;;;;;;4957921;28;20497;-80
2023/10/25 11:47:26;;;;;;;1.90;1.20;;;16.40;90.60;;;;;;4957807;28;20031;-80
2023/10/25 11:49:53;;;;;;;1.92;1.10;;;16.40;90.60;;;;;;4957968;28;20109;-80
2023/10/25 11:52:29;;;;;;;2.28;1.20;;;16.40;90.50;;;;;;4957813;28;20027;-80
2023/10/25 11:54:55;;;;;;;2.65;1.20;;;16.40;90.40;;;;;;4975083;28;20106;-80
2023/10/25 11:57:29;;;;;;;2.15;1.20;;;16.40;90.40;;;;;;4957820;28;20023;-80
2023/10/25 11:59:55;;;;;;;2.28;1.20;;;16.50;90.40;;;;;;4957716;28;20567;-80
2023/10/25 12:02:24;;;;;;;2.08;1.20;;;16.40;90.40;;;;;;4957716;28;20062;-80
2023/10/25 12:04:50;;;;;;;3.03;1.10;;;16.40;90.40;;;;;;4975010;28;20038;-80
2023/10/25 12:07:16;;;;;;;2.10;1.20;;;16.40;90.40;;;;;;4957453;28;20073;-80
2023/10/25 12:09:42;;;;;;;2.17;0.90;;;16.40;90.50;;;;;;4974838;28;20106;-80
2023/10/25 12:12:10;;;;;;;1.83;1.10;;;16.40;90.60;;;;;;4974769;28;20019;-80
2023/10/25 12:14:36;;;;;;;2.05;1.20;;;16.40;90.60;;;;;;4957551;28;20105;-80
2023/10/25 12:17:01;;;;;;;1.50;1.10;;;16.40;90.60;;;;;;4957042;28;20121;-80
2023/10/25 12:19:27;;;;;;;1.55;1.10;;;16.40;90.60;;;;;;4957415;28;20054;-80
2023/10/25 12:21:55;;;;;;;2.72;1.20;;;16.30;90.60;;;;;;4974727;28;20033;-80
2023/10/25 12:24:22;;;;;;;2.30;1.30;;;16.30;90.60;;;;;;4957373;28;20114;-80
2023/10/25 12:26:47;;;;;;;2.80;1.30;;;16.30;90.60;;;;;;4956952;28;20031;-80
2023/10/25 12:29:13;;;;;;;2.28;1.20;;;16.30;90.60;;;;;;4957234;28;20393;-80
2023/10/25 12:31:38;;;;;;;2.08;1.27;;;16.30;90.70;;;;;;4957038;28;20022;-80
2023/10/25 12:34:04;;;;;;;2.08;1.10;;;16.30;90.60;;;;;;4974575;28;20084;-80
2023/10/25 12:36:29;;;;;;;2.10;1.20;;;16.30;90.70;;;;;;4974204;28;20037;-80
2023/10/25 12:38:55;;;;;;;3.45;1.40;;;16.30;90.70;;;;;;4956110;28;20019;-80
2023/10/25 12:41:20;;;;;;;2.17;1.30;;;16.20;90.70;;;;;;4957028;28;20114;-80
2023/10/25 12:43:46;;;;;;;2.75;1.40;;;16.30;90.70;;;;;;4956957;28;20489;-80
2023/10/25 12:46:11;;;;;;;2.17;1.30;;;16.30;90.70;;;;;;4974031;28;20025;-79
2023/10/25 12:48:37;;;;;;;2.28;1.20;;;16.30;90.70;;;;;;4957340;28;20113;-80